Time;durP1;ratioP1;P1;durP2;ratioP2;P2;SDS_P1;SDS_P2;PMS_P1;PMS_P2;Temp;Humidity;BMP_temperature;BMP_pressure;BME280_temperature;BME280_humidity;BME280_pressure;Samples;Min_cycle;Max_cycle;Signal;HPM_P1;HPM_P2
2021/10/10 00:01:52;;;;;;;17.10;8.73;;;;;;;5.81;42.78;143690.62;1834894;77;22161;-59
2021/10/10 00:04:33;;;;;;;16.82;9.00;;;;;;;5.81;42.79;143690.62;1853528;77;22213;-63
2021/10/10 00:07:34;;;;;;;18.77;9.25;;;;;;;5.76;42.87;143678.12;1853456;77;22144;-60
2021/10/10 00:10:27;;;;;;;17.27;8.63;;;;;;;5.76;43.01;143678.12;1834928;77;22140;-63
2021/10/10 00:13:21;;;;;;;17.70;8.10;;;;;;;5.75;43.09;143675.66;1853363;77;22183;-59
2021/10/10 00:15:56;;;;;;;15.65;8.00;;;;;;;5.76;43.06;143678.12;1853568;77;22124;-61
2021/10/10 00:18:50;;;;;;;16.97;8.95;;;;;;;5.75;42.86;143675.66;1834986;77;22157;-62
2021/10/10 00:21:25;;;;;;;13.62;7.58;;;;;;;5.77;43.04;143680.61;1853513;77;22163;-61
2021/10/10 00:24:00;;;;;;;20.37;10.03;;;;;;;5.79;43.12;143685.63;1834999;77;22570;-60
2021/10/10 00:26:53;;;;;;;12.53;7.75;;;;;;;5.82;43.24;143691.87;1853484;77;22155;-61
2021/10/10 00:29:34;;;;;;;14.90;8.38;;;;;;;5.83;43.06;143695.63;1853416;77;22190;-62
2021/10/10 00:32:09;;;;;;;16.45;7.97;;;;;;;5.84;43.21;143698.11;1853526;77;22617;-63
2021/10/10 00:35:05;;;;;;;13.85;7.58;;;;;;;5.86;43.42;143703.13;1834964;77;22129;-63
2021/10/10 00:38:01;;;;;;;16.20;9.20;;;;;;;5.87;43.12;143704.36;1818410;77;27987;-59
2021/10/10 00:40:35;;;;;;;22.02;8.58;;;;;;;5.94;43.37;143721.91;1834956;77;22579;-57
2021/10/10 00:43:30;;;;;;;13.98;7.72;;;;;;;5.95;43.21;143723.14;1834969;77;22551;-60
2021/10/10 00:46:05;;;;;;;15.90;7.78;;;;;;;5.95;43.13;143723.14;1835016;77;22152;-60
2021/10/10 00:48:59;;;;;;;15.53;8.30;;;;;;;5.97;43.45;143728.16;1834976;77;22141;-59
2021/10/10 00:51:37;;;;;;;15.60;7.37;;;;;;;5.98;43.37;143730.63;1834992;77;22129;-63
2021/10/10 00:54:32;;;;;;;16.00;7.00;;;;;;;5.98;43.38;143731.92;1853479;77;22135;-60
2021/10/10 00:57:09;;;;;;;21.00;8.90;;;;;;;5.98;43.20;143730.63;1835024;77;22542;-59
2021/10/10 01:00:08;;;;;;;14.20;8.50;;;;;;;5.99;43.65;143733.16;1837716;77;28175;-60
2021/10/10 01:02:43;;;;;;;14.45;7.90;;;;;;;6.00;43.56;143735.64;1835130;77;22238;-59
2021/10/10 01:05:38;;;;;;;16.55;8.45;;;;;;;6.01;43.43;143738.17;1853483;77;22135;-61
2021/10/10 01:08:17;;;;;;;16.35;8.35;;;;;;;6.00;43.81;143735.64;1834996;77;22211;-55
2021/10/10 01:11:11;;;;;;;15.53;8.25;;;;;;;5.97;43.55;143728.16;1835044;77;22137;-63
2021/10/10 01:13:46;;;;;;;17.77;9.50;;;;;;;5.95;43.93;143724.39;1819456;77;28002;-59
2021/10/10 01:16:27;;;;;;;15.48;8.98;;;;;;;5.99;43.95;143733.16;1853544;77;22180;-59
2021/10/10 01:19:21;;;;;;;18.00;8.58;;;;;;;5.96;44.06;143725.67;1835069;77;22161;-59
2021/10/10 01:22:14;;;;;;;15.70;7.60;;;;;;;5.96;44.14;143725.67;1834979;77;22219;-59
2021/10/10 01:25:08;;;;;;;15.38;9.00;;;;;;;5.95;44.03;143723.14;1834975;77;22125;-62
2021/10/10 01:27:44;;;;;;;17.07;8.63;;;;;;;5.94;44.45;143720.67;1834965;77;22559;-64
2021/10/10 01:30:38;;;;;;;16.50;8.93;;;;;;;5.93;44.30;143719.38;1853591;77;22135;-60
2021/10/10 01:33:14;;;;;;;15.70;8.60;;;;;;;5.91;44.52;143714.38;1853554;77;22152;-58
2021/10/10 01:36:15;;;;;;;21.45;9.85;;;;;;;5.87;45.03;143704.36;1834137;77;22167;-57
2021/10/10 01:38:50;;;;;;;18.77;9.88;;;;;;;5.82;45.29;143691.87;1835020;77;20206;-56
2021/10/10 01:41:25;;;;;;;18.73;9.75;;;;;;;5.77;45.38;143680.61;1853536;77;22132;-60
2021/10/10 01:43:59;;;;;;;16.42;9.58;;;;;;;5.75;45.69;143675.66;1853558;77;22132;-60
2021/10/10 01:46:34;;;;;;;16.50;9.48;;;;;;;5.72;45.99;143668.13;1853594;77;22131;-64
2021/10/10 01:49:11;;;;;;;17.35;9.43;;;;;;;5.68;46.01;143658.16;1853544;77;22131;-62
2021/10/10 01:52:06;;;;;;;17.85;10.28;;;;;;;5.68;46.41;143656.92;1819347;77;28006;-60
2021/10/10 01:54:41;;;;;;;21.10;10.35;;;;;;;5.71;46.58;143665.64;1835013;77;20211;-64
2021/10/10 01:57:16;;;;;;;19.20;8.93;;;;;;;5.70;46.65;143663.16;1853521;77;22234;-62
2021/10/10 01:59:50;;;;;;;19.50;9.28;;;;;;;5.65;46.98;143650.67;1835085;77;22562;-61
2021/10/10 02:02:28;;;;;;;19.60;9.08;;;;;;;5.61;47.11;143640.66;1835008;77;22153;-60
2021/10/10 02:05:05;;;;;;;15.55;8.63;;;;;;;5.59;47.02;143635.66;1834979;77;22550;-63
2021/10/10 02:07:40;;;;;;;22.65;9.48;;;;;;;5.56;47.38;143629.41;1834983;77;22132;-61
2021/10/10 02:10:34;;;;;;;15.28;9.08;;;;;;;5.53;47.40;143620.69;1834939;77;22140;-62
2021/10/10 02:13:28;;;;;;;18.40;9.60;;;;;;;5.49;47.69;143611.92;1835028;77;22184;-62
2021/10/10 02:16:21;;;;;;;18.77;9.05;;;;;;;5.46;47.77;143603.19;1834931;77;22160;-59
2021/10/10 02:18:56;;;;;;;18.65;10.18;;;;;;;5.41;47.97;143593.19;1835106;77;22148;-58
2021/10/10 02:21:37;;;;;;;19.27;9.15;;;;;;;5.38;48.00;143585.70;1834142;77;22602;-59
2021/10/10 02:24:11;;;;;;;16.95;8.93;;;;;;;5.36;48.33;143580.69;1834979;77;22125;-59
2021/10/10 02:26:46;;;;;;;17.87;8.70;;;;;;;5.34;48.39;143574.45;1835013;77;22125;-60
2021/10/10 02:29:27;;;;;;;15.13;9.13;;;;;;;5.32;48.68;143570.73;1843204;77;22169;-60
2021/10/10 02:32:08;;;;;;;15.40;8.23;;;;;;;5.30;48.87;143564.48;1834176;77;22168;-60
2021/10/10 02:34:43;;;;;;;19.48;8.75;;;;;;;5.28;48.88;143559.48;1835107;77;22547;-62
2021/10/10 02:37:18;;;;;;;14.58;7.95;;;;;;;5.25;48.98;143553.25;1853524;77;22155;-61
2021/10/10 02:40:12;;;;;;;20.23;9.50;;;;;;;5.23;49.21;143549.47;1853494;77;22131;-58
2021/10/10 02:42:47;;;;;;;15.40;9.35;;;;;;;5.22;49.31;143547.00;1837754;77;38306;-63
2021/10/10 02:45:22;;;;;;;16.73;9.63;;;;;;;5.27;49.47;143558.25;1853565;77;22131;-59
2021/10/10 02:48:16;;;;;;;20.20;8.85;;;;;;;5.26;49.39;143554.47;1834975;77;22160;-59
2021/10/10 02:51:09;;;;;;;16.82;8.63;;;;;;;5.25;49.48;143553.25;1853485;77;22140;-60
2021/10/10 02:54:03;;;;;;;12.43;8.05;;;;;;;5.26;49.66;143554.47;1853629;77;22131;-61
2021/10/10 02:56:38;;;;;;;18.40;9.33;;;;;;;5.26;49.69;143554.47;1834979;77;22136;-60
2021/10/10 02:59:14;;;;;;;18.02;8.80;;;;;;;5.25;49.93;143553.25;1834979;77;22136;-60
2021/10/10 03:02:08;;;;;;;14.87;8.48;;;;;;;5.25;50.03;143552.00;1834968;77;22124;-57
2021/10/10 03:04:42;;;;;;;17.02;9.05;;;;;;;5.25;50.20;143552.00;1835135;77;22125;-63
2021/10/10 03:07:17;;;;;;;15.88;8.60;;;;;;;5.26;50.21;143554.47;1834951;77;22156;-57
2021/10/10 03:09:52;;;;;;;15.32;8.15;;;;;;;5.26;50.39;143555.72;1834995;77;22575;-61
2021/10/10 03:12:46;;;;;;;16.73;7.78;;;;;;;5.25;50.52;143553.25;1834920;77;22151;-57
2021/10/10 03:15:21;;;;;;;16.95;8.78;;;;;;;5.25;50.55;143553.25;1834970;77;22157;-60
2021/10/10 03:17:56;;;;;;;17.48;8.40;;;;;;;5.25;50.72;143552.00;1853529;77;22131;-63
2021/10/10 03:20:31;;;;;;;17.17;8.60;;;;;;;5.25;50.84;143552.00;1853544;77;22148;-60
2021/10/10 03:23:06;;;;;;;17.30;9.05;;;;;;;5.26;51.22;143555.72;1853549;77;22159;-58
2021/10/10 03:25:59;;;;;;;14.35;8.43;;;;;;;5.23;51.37;143548.23;1834920;77;22271;-59
2021/10/10 03:28:34;;;;;;;15.50;8.28;;;;;;;5.23;51.53;143548.23;1835028;77;22165;-61
2021/10/10 03:31:28;;;;;;;18.92;8.83;;;;;;;5.25;51.81;143552.00;1853458;77;22135;-58
2021/10/10 03:34:02;;;;;;;16.87;8.43;;;;;;;5.25;51.95;143553.25;1835004;77;22124;-64
2021/10/10 03:36:56;;;;;;;16.15;8.78;;;;;;;5.25;52.20;143553.25;1853453;77;22139;-61
2021/10/10 03:39:31;;;;;;;16.00;8.70;;;;;;;5.23;52.27;143548.23;1834997;77;22211;-59
2021/10/10 03:42:12;;;;;;;17.23;9.25;;;;;;;5.20;52.48;143542.00;1834111;77;22210;-61
2021/10/10 03:44:46;;;;;;;18.32;8.68;;;;;;;5.19;52.49;143539.52;1834968;77;22136;-63
2021/10/10 03:47:21;;;;;;;17.25;8.90;;;;;;;5.21;52.51;143543.23;1835011;77;22587;-59
2021/10/10 03:49:56;;;;;;;21.25;8.60;;;;;;;5.21;52.73;143543.23;1834980;77;22587;-59
2021/10/10 03:52:31;;;;;;;17.45;9.25;;;;;;;5.19;52.69;143538.22;1834944;77;22214;-60
2021/10/10 03:55:30;;;;;;;16.87;8.15;;;;;;;5.18;52.90;143535.75;1834977;77;22145;-64
2021/10/10 03:58:06;;;;;;;16.85;7.67;;;;;;;5.17;52.62;143534.52;1834997;77;22535;-63
2021/10/10 04:01:00;;;;;;;14.20;8.15;;;;;;;5.19;53.01;143538.22;1834902;77;22563;-60
2021/10/10 04:03:41;;;;;;;19.27;10.30;;;;;;;5.19;52.86;143539.52;1853535;77;22183;-61
2021/10/10 04:06:15;;;;;;;15.35;8.85;;;;;;;5.20;53.03;143540.75;1834985;77;22132;-63
2021/10/10 04:08:50;;;;;;;18.40;9.25;;;;;;;5.19;53.09;143538.22;1843402;77;22128;-62
2021/10/10 04:11:25;;;;;;;18.37;7.92;;;;;;;5.20;53.27;143540.75;1834932;77;22157;-60
2021/10/10 04:14:00;;;;;;;16.93;8.85;;;;;;;5.22;53.30;143545.77;1834980;77;22575;-62
2021/10/10 04:16:54;;;;;;;16.07;8.33;;;;;;;5.23;53.20;143548.23;1834988;77;22136;-61
2021/10/10 04:19:35;;;;;;;17.57;9.45;;;;;;;5.25;53.35;143552.00;1834193;77;22292;-60
2021/10/10 04:22:10;;;;;;;17.15;9.10;;;;;;;5.26;53.45;143555.72;1834890;77;22133;-58
2021/10/10 04:25:05;;;;;;;17.05;8.15;;;;;;;5.30;53.43;143564.48;1835007;77;22160;-62
2021/10/10 04:27:41;;;;;;;17.98;8.60;;;;;;;5.31;53.51;143566.97;1834997;77;22156;-60
2021/10/10 04:30:34;;;;;;;12.80;7.75;;;;;;;5.33;53.48;143573.22;1834945;77;22156;-58
2021/10/10 04:33:28;;;;;;;15.90;9.35;;;;;;;5.36;53.35;143580.69;1834960;77;22547;-60
2021/10/10 04:36:04;;;;;;;16.27;8.90;;;;;;;5.38;53.39;143585.70;1835090;77;22558;-57
2021/10/10 04:38:57;;;;;;;15.83;9.50;;;;;;;5.40;53.38;143590.70;1834952;77;22133;-65
2021/10/10 04:41:32;;;;;;;14.68;7.83;;;;;;;5.44;53.29;143600.72;1834986;77;22125;-61
2021/10/10 04:44:07;;;;;;;15.03;8.33;;;;;;;5.47;53.12;143605.67;1835031;77;22156;-64
2021/10/10 04:46:42;;;;;;;15.23;8.70;;;;;;;5.48;53.26;143608.19;1834950;77;22579;-61
2021/10/10 04:49:41;;;;;;;17.42;7.97;;;;;;;5.51;53.24;143615.69;1853484;77;22602;-60
2021/10/10 04:52:16;;;;;;;17.80;8.83;;;;;;;5.54;53.15;143624.41;1834994;77;22136;-60
2021/10/10 04:54:51;;;;;;;15.05;9.45;;;;;;;5.58;53.11;143633.17;1853649;77;22570;-57
2021/10/10 04:57:26;;;;;;;13.88;8.13;;;;;;;5.60;53.08;143639.42;1853588;77;22132;-60
2021/10/10 05:00:21;;;;;;;18.12;8.28;;;;;;;5.62;53.20;143643.14;1853494;77;22138;-58
2021/10/10 05:02:56;;;;;;;13.43;8.38;;;;;;;5.62;53.14;143643.14;1834990;77;22543;-58
2021/10/10 05:05:31;;;;;;;20.08;8.33;;;;;;;5.63;53.40;143646.91;1853558;77;22124;-64
2021/10/10 05:08:24;;;;;;;14.80;9.15;;;;;;;5.65;53.40;143650.67;1853497;77;22550;-60
2021/10/10 05:10:59;;;;;;;15.00;8.58;;;;;;;5.65;53.49;143650.67;1853533;77;22541;-57
2021/10/10 05:13:37;;;;;;;22.90;9.23;;;;;;;5.66;53.52;143653.16;1853537;77;22120;-60
2021/10/10 05:16:31;;;;;;;22.70;10.23;;;;;;;5.67;53.51;143655.63;1834973;77;22547;-62
2021/10/10 05:19:05;;;;;;;15.38;9.55;;;;;;;5.69;53.71;143659.39;1853532;77;22558;-58
2021/10/10 05:21:59;;;;;;;17.60;8.88;;;;;;;5.71;53.85;143665.64;1834938;77;22160;-55
2021/10/10 05:24:34;;;;;;;15.32;7.85;;;;;;;5.76;55.92;143676.89;1835016;77;22128;-54
2021/10/10 05:27:28;;;;;;;17.10;8.90;;;;;;;5.99;55.46;143733.16;1834048;77;22168;-63
2021/10/10 05:30:22;;;;;;;17.57;8.83;;;;;;;6.05;53.76;143748.14;1834872;77;22218;-62
2021/10/10 05:33:03;;;;;;;14.70;8.55;;;;;;;6.05;53.45;143748.14;1853257;77;22159;-63
2021/10/10 05:35:57;;;;;;;19.50;9.00;;;;;;;6.07;53.20;143753.14;1853507;77;22128;-64
2021/10/10 05:38:50;;;;;;;16.20;8.68;;;;;;;6.07;53.19;143753.14;1835073;77;22124;-66
2021/10/10 05:41:26;;;;;;;14.93;8.75;;;;;;;6.08;53.31;143755.62;1834895;77;22132;-64
2021/10/10 05:44:06;;;;;;;24.10;10.35;;;;;;;6.09;53.09;143759.39;1834075;77;22258;-63
2021/10/10 05:47:06;;;;;;;14.20;8.70;;;;;;;6.12;53.11;143765.64;1843158;77;22188;-63
2021/10/10 05:49:41;;;;;;;18.00;9.95;;;;;;;6.15;52.95;143771.89;1834988;77;22153;-64
2021/10/10 05:52:36;;;;;;;22.50;9.70;;;;;;;6.18;52.90;143780.66;1834995;77;22160;-64
2021/10/10 05:55:14;;;;;;;17.70;9.58;;;;;;;6.23;52.77;143793.16;1834714;77;22179;-63
2021/10/10 05:58:16;;;;;;;21.20;9.48;;;;;;;6.30;52.66;143810.63;1853489;77;22558;-63
2021/10/10 06:00:46;;;;;;;15.35;8.20;;;;;;;6.35;52.48;143820.64;1834947;77;22128;-63
2021/10/10 06:03:40;;;;;;;20.75;10.65;;;;;;;6.40;52.58;143833.12;1853501;77;22542;-62
2021/10/10 06:06:15;;;;;;;15.93;8.63;;;;;;;6.45;52.75;143845.63;1835006;77;22595;-61
2021/10/10 06:09:15;;;;;;;17.02;10.03;;;;;;;6.52;52.64;143863.14;1834162;77;22217;-63
2021/10/10 06:11:51;;;;;;;19.25;9.38;;;;;;;6.57;52.55;143875.64;1834960;77;22160;-58
2021/10/10 06:14:29;;;;;;;21.23;11.38;;;;;;;6.63;52.27;143890.63;1837823;77;28443;-61
2021/10/10 06:17:07;;;;;;;18.32;10.28;;;;;;;6.76;52.23;143921.88;1853566;77;22546;-65
2021/10/10 06:19:41;;;;;;;16.15;8.83;;;;;;;6.82;52.13;143936.91;1834936;77;22226;-66
2021/10/10 06:22:37;;;;;;;19.17;10.35;;;;;;;6.89;51.92;143953.14;1848200;77;22606;-65
2021/10/10 06:25:12;;;;;;;19.52;9.78;;;;;;;6.91;52.00;143958.16;1834994;77;22124;-67
2021/10/10 06:28:06;;;;;;;19.87;10.63;;;;;;;6.96;51.88;143970.66;1853509;77;22160;-65
2021/10/10 06:31:00;;;;;;;20.92;10.20;;;;;;;7.01;51.89;143983.16;1834896;77;22136;-65
2021/10/10 06:33:35;;;;;;;17.00;9.90;;;;;;;7.09;52.04;144001.92;1853626;77;22124;-66
2021/10/10 06:36:10;;;;;;;20.20;10.00;;;;;;;7.18;52.02;144025.69;1827525;77;22163;-64
2021/10/10 06:39:04;;;;;;;20.23;9.83;;;;;;;7.28;51.81;144049.47;1835012;77;22160;-62
2021/10/10 06:41:39;;;;;;;21.97;10.32;;;;;;;7.35;51.23;144066.98;1834982;77;22148;-60
2021/10/10 06:44:20;;;;;;;20.40;10.28;;;;;;;7.42;50.67;144083.22;1834116;77;22188;-63
2021/10/10 06:47:20;;;;;;;16.10;8.75;;;;;;;7.54;50.25;144112.00;1853394;77;22187;-62
2021/10/10 06:50:14;;;;;;;19.95;9.28;;;;;;;7.66;50.13;144142.05;1853458;77;22135;-64
2021/10/10 06:53:08;;;;;;;17.73;8.63;;;;;;;7.77;49.81;144169.55;1853478;77;22127;-67
2021/10/10 06:55:42;;;;;;;23.80;10.20;;;;;;;7.86;49.29;144190.86;1834968;77;22612;-72
2021/10/10 06:58:21;;;;;;;20.48;9.88;;;;;;;7.95;49.10;144213.34;1853483;77;22611;-63
2021/10/10 07:01:20;;;;;;;19.27;9.55;;;;;;;8.07;48.53;144242.16;1853406;77;22183;-70
2021/10/10 07:04:01;;;;;;;16.60;9.85;;;;;;;8.22;49.00;144278.47;1853304;77;22187;-70
2021/10/10 07:06:36;;;;;;;17.92;9.13;;;;;;;8.37;48.85;144316.03;1834706;77;22176;-70
2021/10/10 07:09:36;;;;;;;17.98;9.70;;;;;;;8.56;48.19;144361.13;1834081;77;22185;-71
2021/10/10 07:12:17;;;;;;;20.45;9.20;;;;;;;8.71;48.57;144398.70;1834166;77;22172;-71
2021/10/10 07:14:52;;;;;;;15.93;9.65;;;;;;;8.95;48.17;144457.55;1853725;77;22200;-71
2021/10/10 07:17:28;;;;;;;15.08;8.85;;;;;;;9.14;47.84;144503.92;1853571;77;22586;-71
2021/10/10 07:20:14;;;;;;;18.52;8.53;;;;;;;9.28;47.41;144538.97;1834169;77;22187;-71
2021/10/10 07:22:57;;;;;;;19.42;9.50;;;;;;;9.45;46.70;144579.09;1835173;77;22586;-71
2021/10/10 07:25:23;;;;;;;16.97;9.78;;;;;;;9.63;46.37;144624.19;1834990;77;22132;-71
2021/10/10 07:27:57;;;;;;;17.07;9.58;;;;;;;9.83;45.37;144673.08;1835172;77;22236;-72
2021/10/10 07:30:38;;;;;;;21.45;9.65;;;;;;;9.99;45.38;144711.94;1834194;77;22184;-71
2021/10/10 07:33:19;;;;;;;20.02;10.28;;;;;;;10.27;44.97;144779.64;1843126;77;22187;-71
2021/10/10 07:36:00;;;;;;;19.52;10.13;;;;;;;10.56;44.24;144852.44;1853611;77;22169;-72
2021/10/10 07:38:53;;;;;;;16.70;9.95;;;;;;;10.84;43.79;144921.44;1853469;77;22630;-71
2021/10/10 07:41:49;;;;;;;18.10;9.50;;;;;;;11.14;43.31;144992.94;1835106;77;22156;-71
2021/10/10 07:44:28;;;;;;;20.80;9.63;;;;;;;11.42;42.14;145061.94;1853564;77;22124;-71
2021/10/10 07:47:14;;;;;;;24.45;10.08;;;;;;;11.60;41.98;145107.17;1834990;77;22136;-70
2021/10/10 07:49:45;;;;;;;18.10;9.10;;;;;;;11.90;41.65;145181.25;1853570;77;22558;-70
2021/10/10 07:52:20;;;;;;;19.25;10.88;;;;;;;12.15;40.55;145241.53;1819424;77;27993;-72
2021/10/10 07:55:01;;;;;;;15.40;9.23;;;;;;;12.38;40.12;145299.30;1834200;77;22606;-71
2021/10/10 07:58:02;;;;;;;17.05;9.03;;;;;;;12.70;39.47;145377.20;1834065;77;22176;-70
2021/10/10 08:00:59;;;;;;;19.95;8.93;;;;;;;12.90;38.46;145424.92;1853556;77;22146;-71
2021/10/10 08:03:54;;;;;;;12.75;8.23;;;;;;;13.10;38.24;145473.94;1853627;77;22171;-72
2021/10/10 08:06:35;;;;;;;16.77;8.63;;;;;;;13.38;37.18;145544.41;1834199;77;22156;-71
2021/10/10 08:09:30;;;;;;;18.82;8.15;;;;;;;13.60;37.41;145597.19;1835056;77;22128;-71
2021/10/10 08:12:23;;;;;;;14.75;8.38;;;;;;;13.71;36.48;145624.81;1834939;77;22124;-72
2021/10/10 08:15:17;;;;;;;17.62;9.15;;;;;;;13.62;36.12;145603.47;1853532;77;22131;-71
2021/10/10 08:17:58;;;;;;;16.40;8.45;;;;;;;13.60;36.23;145598.42;1853561;77;22183;-71
2021/10/10 08:20:57;;;;;;;16.77;8.45;;;;;;;13.68;36.36;145618.53;1853532;77;22558;-71
2021/10/10 08:23:51;;;;;;;14.70;8.30;;;;;;;13.81;36.29;145649.97;1835035;77;22129;-71
2021/10/10 08:26:27;;;;;;;14.05;7.58;;;;;;;14.01;36.17;145699.02;1834945;77;22144;-71
2021/10/10 08:29:02;;;;;;;13.78;7.70;;;;;;;14.27;34.37;145761.91;1819509;77;28418;-71
2021/10/10 08:31:56;;;;;;;13.60;8.03;;;;;;;14.27;34.66;145763.20;1824847;77;22182;-70
2021/10/10 08:34:37;;;;;;;17.10;7.65;;;;;;;14.15;34.88;145733.00;1853578;77;22156;-72
2021/10/10 08:37:39;;;;;;;18.40;8.28;;;;;;;14.48;34.44;145814.77;1834151;77;22172;-71
2021/10/10 08:40:32;;;;;;;15.58;8.05;;;;;;;14.70;34.09;145868.88;1853562;77;22129;-71
2021/10/10 08:43:28;;;;;;;17.05;7.83;;;;;;;15.15;33.18;145978.41;1835040;77;22156;-73
2021/10/10 08:46:06;;;;;;;14.55;8.33;;;;;;;15.61;32.86;146092.95;1828510;77;22593;-72
2021/10/10 08:48:41;;;;;;;18.57;8.40;;;;;;;15.94;32.84;146172.34;1853633;77;22212;-72
2021/10/10 08:51:16;;;;;;;12.93;8.08;;;;;;;16.16;32.93;146227.78;1835024;77;22164;-71
2021/10/10 08:53:51;;;;;;;15.45;8.38;;;;;;;16.31;31.92;146263.03;1843382;78;22179;-71
2021/10/10 08:56:45;;;;;;;21.97;8.28;;;;;;;16.02;32.57;146192.50;1853638;77;22562;-72
2021/10/10 08:59:45;;;;;;;20.65;9.25;;;;;;;16.01;32.50;146190.00;1834988;77;22132;-71
2021/10/10 09:02:38;;;;;;;15.53;7.65;;;;;;;15.78;32.60;146133.33;1835263;77;22586;-70
2021/10/10 09:05:13;;;;;;;15.32;7.25;;;;;;;15.63;32.64;146098.00;1853818;77;22131;-71
2021/10/10 09:07:48;;;;;;;12.78;7.12;;;;;;;15.37;32.79;146033.80;1835043;77;22128;-71
2021/10/10 09:10:44;;;;;;;13.22;7.75;;;;;;;14.68;33.96;145863.89;1835049;77;22607;-71
2021/10/10 09:13:23;;;;;;;16.20;8.20;;;;;;;13.97;34.39;145687.69;1834988;77;20214;-70
2021/10/10 09:15:56;;;;;;;12.73;7.55;;;;;;;13.30;35.97;145523.00;1834980;77;22160;-70
2021/10/10 09:18:39;;;;;;;12.93;7.65;;;;;;;13.06;36.66;145465.16;1835030;77;22628;-71
2021/10/10 09:21:27;;;;;;;17.80;7.85;;;;;;;12.90;37.16;145424.92;1834900;77;22160;-72
2021/10/10 09:24:12;;;;;;;14.58;8.38;;;;;;;12.86;37.51;145416.14;1853660;77;22155;-71
2021/10/10 09:27:12;;;;;;;15.30;8.55;;;;;;;12.90;37.75;145424.92;1853577;77;22128;-70
2021/10/10 09:29:51;;;;;;;19.52;8.80;;;;;;;12.80;38.19;145401.08;1835017;77;22152;-70
2021/10/10 09:32:27;;;;;;;14.05;8.90;;;;;;;12.85;38.48;145413.66;1853557;77;22131;-72
2021/10/10 09:35:04;;;;;;;18.90;10.00;;;;;;;12.76;38.69;145391.02;1819512;77;28405;-71
2021/10/10 09:37:46;;;;;;;19.52;9.28;;;;;;;12.89;39.07;145422.42;1853738;77;22155;-70
2021/10/10 09:40:46;;;;;;;12.68;7.87;;;;;;;12.99;38.63;145447.56;1834890;77;22140;-70
2021/10/10 09:44:01;;;;;;;13.80;7.35;;;;;;;12.88;38.50;145421.19;1834981;77;22163;-70
2021/10/10 09:46:45;;;;;;;20.17;8.38;;;;;;;12.86;38.02;145416.14;1835024;77;22207;-70
2021/10/10 09:49:41;;;;;;;16.85;7.80;;;;;;;12.77;38.43;145394.80;1834735;77;22167;-70
2021/10/10 09:52:36;;;;;;;16.82;7.28;;;;;;;12.76;38.52;145392.27;1834711;77;22155;-71
2021/10/10 09:55:32;;;;;;;12.37;7.37;;;;;;;12.72;38.27;145382.23;1834859;77;22181;-71
2021/10/10 09:58:43;;;;;;;17.48;7.58;;;;;;;12.85;38.40;145412.34;1834949;77;22551;-71
2021/10/10 10:01:39;;;;;;;13.35;7.87;;;;;;;12.72;38.68;145382.23;1835016;77;22136;-71
2021/10/10 10:04:46;;;;;;;17.42;7.83;;;;;;;12.64;38.94;145362.09;1853562;77;22140;-71
2021/10/10 10:07:28;;;;;;;14.63;6.78;;;;;;;12.74;38.16;145387.22;1834150;77;22152;-71
2021/10/10 10:10:28;;;;;;;15.83;7.17;;;;;;;12.72;38.37;145382.23;1853583;77;22128;-70
2021/10/10 10:13:21;;;;;;;14.20;7.45;;;;;;;12.53;38.80;145334.48;1853537;77;22151;-72
2021/10/10 10:16:18;;;;;;;12.30;7.17;;;;;;;12.45;39.25;145314.39;1834761;77;22224;-71
2021/10/10 10:19:22;;;;;;;16.00;7.22;;;;;;;12.60;38.70;145352.08;1834123;77;22175;-70
2021/10/10 10:21:58;;;;;;;11.08;6.90;;;;;;;12.73;38.76;145384.73;1835018;77;22149;-70
2021/10/10 10:24:35;;;;;;;15.30;7.50;;;;;;;12.85;38.72;145413.66;1819437;77;28014;-70
2021/10/10 10:27:13;;;;;;;12.35;6.42;;;;;;;12.95;38.80;145437.48;1853543;77;22200;-70
2021/10/10 10:30:09;;;;;;;13.28;6.97;;;;;;;13.16;37.78;145490.28;1834907;77;22193;-72
2021/10/10 10:32:46;;;;;;;14.60;7.35;;;;;;;13.20;37.45;145499.06;1819415;77;27996;-70
2021/10/10 10:35:22;;;;;;;12.05;6.58;;;;;;;13.12;37.54;145478.97;1848226;77;22166;-71
2021/10/10 10:37:57;;;;;;;16.07;7.00;;;;;;;13.13;37.99;145481.52;1837860;77;28001;-70
2021/10/10 10:40:58;;;;;;;11.48;7.08;;;;;;;13.04;38.09;145460.13;1853869;77;22207;-71
2021/10/10 10:43:37;;;;;;;13.83;7.00;;;;;;;13.08;38.21;145470.19;1853561;77;22136;-72
2021/10/10 10:46:12;;;;;;;12.03;6.22;;;;;;;13.18;37.62;145495.33;1835009;77;22128;-70
2021/10/10 10:49:06;;;;;;;14.25;7.37;;;;;;;13.36;38.11;145538.12;1834880;77;22648;-71
2021/10/10 10:52:36;;;;;;;12.35;7.45;;;;;;;13.59;36.80;145595.94;1834825;77;22270;-72
2021/10/10 10:55:33;;;;;;;8.53;4.80;;;;;;;13.79;35.70;145643.69;1834983;77;22129;-70
2021/10/10 10:58:16;;;;;;;11.05;4.78;;;;;;;13.90;34.64;145671.37;1853537;77;22136;-70
2021/10/10 11:01:02;;;;;;;9.85;5.15;;;;;;;13.86;34.18;145661.30;1834981;77;22156;-72
2021/10/10 11:03:37;;;;;;;9.83;4.53;;;;;;;13.92;34.15;145676.41;1834983;77;22148;-72
2021/10/10 11:06:35;;;;;;;13.45;5.20;;;;;;;13.90;34.03;145671.37;1834815;77;22179;-70
2021/10/10 11:09:30;;;;;;;9.93;4.40;;;;;;;13.83;33.98;145653.77;1834783;77;22594;-70
2021/10/10 11:12:09;;;;;;;8.33;4.50;;;;;;;13.87;33.79;145663.84;1835001;77;22603;-72
2021/10/10 11:14:49;;;;;;;10.50;4.53;;;;;;;14.02;33.40;145701.56;1834987;77;22157;-72
2021/10/10 11:17:25;;;;;;;7.35;3.90;;;;;;;14.21;33.25;145746.83;1834914;77;22661;-71
2021/10/10 11:20:02;;;;;;;7.10;4.22;;;;;;;14.33;32.98;145778.28;1834888;77;22205;-71
2021/10/10 11:22:40;;;;;;;9.85;4.60;;;;;;;14.53;32.92;145827.39;1819403;77;28428;-71
2021/10/10 11:25:15;;;;;;;10.20;4.55;;;;;;;14.80;32.48;145892.81;1853546;77;22127;-71
2021/10/10 11:27:50;;;;;;;8.55;3.90;;;;;;;14.98;31.99;145936.84;1835023;77;22172;-70
2021/10/10 11:30:31;;;;;;;8.98;4.47;;;;;;;15.03;31.97;145948.19;1835026;77;22128;-70
2021/10/10 11:33:05;;;;;;;7.80;4.20;;;;;;;15.07;31.82;145958.28;1835050;77;22163;-72
2021/10/10 11:35:42;;;;;;;10.98;5.45;;;;;;;15.20;31.73;145990.98;1834975;77;22153;-72
2021/10/10 11:38:17;;;;;;;10.58;4.78;;;;;;;15.30;31.79;146014.91;1853549;77;22152;-71
2021/10/10 11:41:00;;;;;;;10.23;4.28;;;;;;;15.41;31.84;146042.59;1834994;77;22161;-72
2021/10/10 11:43:35;;;;;;;8.98;4.53;;;;;;;15.38;31.41;146036.30;1835023;77;22161;-71
2021/10/10 11:46:10;;;;;;;12.40;5.12;;;;;;;15.32;31.55;146021.20;1834940;77;22197;-73
2021/10/10 11:48:45;;;;;;;11.65;4.87;;;;;;;15.32;32.56;146021.20;1834996;77;22196;-71
2021/10/10 11:54:12;;;;;;;8.40;4.92;;;;;;;15.75;32.71;146127.03;1853651;77;22147;-73
2021/10/10 11:56:58;;;;;;;10.90;5.72;;;;;;;15.94;32.40;146172.34;1834922;77;22140;-71
2021/10/10 11:59:45;;;;;;;13.13;4.62;;;;;;;16.00;30.97;146187.45;1853591;77;22151;-71
2021/10/10 12:02:21;;;;;;;8.48;5.05;;;;;;;15.77;31.31;146130.78;1834971;77;22583;-72
2021/10/10 12:05:14;;;;;;;9.45;4.75;;;;;;;15.78;31.19;146134.58;1819407;77;28031;-71
2021/10/10 12:07:51;;;;;;;9.23;3.87;;;;;;;15.83;30.50;146147.16;1834921;77;22161;-71
2021/10/10 12:10:30;;;;;;;17.52;5.03;;;;;;;15.92;29.82;146167.31;1834951;77;22128;-71
2021/10/10 12:13:05;;;;;;;8.28;4.47;;;;;;;16.04;30.53;146198.80;1834986;77;22232;-70
2021/10/10 12:15:40;;;;;;;10.28;4.78;;;;;;;16.17;29.17;146230.28;1853586;77;22124;-71
2021/10/10 12:18:15;;;;;;;11.97;4.03;;;;;;;16.14;29.20;146222.73;1853546;77;22200;-71
2021/10/10 12:20:55;;;;;;;11.85;4.87;;;;;;;16.22;29.83;146242.88;1853551;77;22200;-71
2021/10/10 12:23:32;;;;;;;10.70;4.90;;;;;;;16.26;29.72;146252.97;1834682;77;22274;-70
2021/10/10 12:26:13;;;;;;;15.90;4.90;;;;;;;16.22;29.79;146242.88;1853560;77;22159;-71
2021/10/10 12:28:47;;;;;;;12.53;4.45;;;;;;;16.16;30.09;146227.78;1834997;77;22156;-72
2021/10/10 12:31:23;;;;;;;8.58;4.00;;;;;;;16.02;30.06;146192.50;1834921;77;22179;-72
2021/10/10 12:34:08;;;;;;;10.72;4.80;;;;;;;16.00;30.31;146187.45;1837862;77;27966;-70
2021/10/10 12:36:48;;;;;;;9.25;4.45;;;;;;;15.95;30.17;146176.16;1835111;77;22168;-71
2021/10/10 12:39:41;;;;;;;10.08;4.40;;;;;;;15.96;30.33;146177.41;1835014;77;22152;-71
2021/10/10 12:42:50;;;;;;;8.50;4.00;;;;;;;16.03;30.50;146195.05;1853518;77;22164;-71